PANC/ANC METAR and TAF weather

Enter ICAO airport designator
Station Type Date Time Source
PANC METAR 2020/09/21 04:53 UTC NOAA

PANC 210453Z 03004KT 10SM FEW048 BKN080 BKN220 08/06 A2966 RMK AO2 SLP044 T00830056


Station Type Date Time Source
PANC Decoded METAR 2020/09/21 04:53 UTC NOAA

TED STEVENS ANCHORAGE INTERNATIONAL , AK, United States (PANC) 61-10N 150-02W 48M
Sep 21, 2020 - 12:53 AM EDT / 2020.09.21 0453 UTC
Wind: from the NNE (030 degrees) at 5 MPH (4 KT):0
Visibility: 10 mile(s):0
Sky conditions: mostly cloudy
Temperature: 46.9 F (8.3 C)
Dew Point: 42.1 F (5.6 C)
Relative Humidity: 83%
Pressure (altimeter): 29.66 in. Hg (1004 hPa)
ob: PANC 210453Z 03004KT 10SM FEW048 BKN080 BKN220 08/06 A2966 RMK AO2 SLP044 T00830056
cycle: 5

Station Type Date Time Source
PANC TAF 2020/09/21 06:22 UTC NOAA

TAF PANC 210520Z 2106/2212 VRB05KT P6SM VCSH SCT045 BKN070

Example: see airport list